sensor_id;sensor_type;location;lat;lon;timestamp;temperature;humidity
17565;DHT22;62994;52.126;5.596;2024-03-07T00:01:41;7.80;99.90
17565;DHT22;62994;52.126;5.596;2024-03-07T00:04:08;7.70;99.90
17565;DHT22;62994;52.126;5.596;2024-03-07T00:06:38;7.70;99.90
17565;DHT22;62994;52.126;5.596;2024-03-07T00:09:07;7.70;99.90
17565;DHT22;62994;52.126;5.596;2024-03-07T00:11:38;7.70;99.90
17565;DHT22;62994;52.126;5.596;2024-03-07T00:14:06;7.80;99.90
17565;DHT22;62994;52.126;5.596;2024-03-07T00:16:33;7.80;99.90
17565;DHT22;62994;52.126;5.596;2024-03-07T00:19:02;7.80;99.90
17565;DHT22;62994;52.126;5.596;2024-03-07T00:21:28;7.80;99.90
17565;DHT22;62994;52.126;5.596;2024-03-07T00:23:56;7.70;99.90
17565;DHT22;62994;52.126;5.596;2024-03-07T00:26:23;7.70;99.90
17565;DHT22;62994;52.126;5.596;2024-03-07T00:28:51;7.60;99.90
17565;DHT22;62994;52.126;5.596;2024-03-07T00:31:18;7.60;99.90
17565;DHT22;62994;52.126;5.596;2024-03-07T00:33:45;7.50;99.90
17565;DHT22;62994;52.126;5.596;2024-03-07T00:36:13;7.50;99.90
17565;DHT22;62994;52.126;5.596;2024-03-07T00:38:41;7.50;99.90
17565;DHT22;62994;52.126;5.596;2024-03-07T00:41:10;7.40;99.90
17565;DHT22;62994;52.126;5.596;2024-03-07T00:43:42;7.40;99.90
17565;DHT22;62994;52.126;5.596;2024-03-07T00:46:09;7.40;99.90
17565;DHT22;62994;52.126;5.596;2024-03-07T00:48:36;7.40;99.90
17565;DHT22;62994;52.126;5.596;2024-03-07T00:51:04;7.30;99.90
17565;DHT22;62994;52.126;5.596;2024-03-07T00:53:35;7.30;99.90
17565;DHT22;62994;52.126;5.596;2024-03-07T00:56:03;7.30;99.90
17565;DHT22;62994;52.126;5.596;2024-03-07T00:58:30;7.30;99.90
17565;DHT22;62994;52.126;5.596;2024-03-07T01:00:57;7.30;99.90
17565;DHT22;62994;52.126;5.596;2024-03-07T01:03:26;7.30;99.90
17565;DHT22;62994;52.126;5.596;2024-03-07T01:05:53;7.30;99.90
17565;DHT22;62994;52.126;5.596;2024-03-07T01:08:20;7.30;99.90
17565;DHT22;62994;52.126;5.596;2024-03-07T01:10:48;7.30;99.90
17565;DHT22;62994;52.126;5.596;2024-03-07T01:13:15;7.30;99.90
17565;DHT22;62994;52.126;5.596;2024-03-07T01:15:46;7.30;99.90
17565;DHT22;62994;52.126;5.596;2024-03-07T01:18:18;7.30;99.90
17565;DHT22;62994;52.126;5.596;2024-03-07T01:20:45;7.30;99.90
17565;DHT22;62994;52.126;5.596;2024-03-07T01:23:12;7.30;99.90
17565;DHT22;62994;52.126;5.596;2024-03-07T01:25:44;7.30;99.90
17565;DHT22;62994;52.126;5.596;2024-03-07T01:28:12;7.30;99.90
17565;DHT22;62994;52.126;5.596;2024-03-07T01:30:40;7.30;99.90
17565;DHT22;62994;52.126;5.596;2024-03-07T01:33:07;7.20;99.90
17565;DHT22;62994;52.126;5.596;2024-03-07T01:35:34;7.20;99.90
17565;DHT22;62994;52.126;5.596;2024-03-07T01:38:01;7.20;99.90
17565;DHT22;62994;52.126;5.596;2024-03-07T01:40:29;7.20;99.90
17565;DHT22;62994;52.126;5.596;2024-03-07T01:42:58;7.20;99.90
17565;DHT22;62994;52.126;5.596;2024-03-07T01:45:26;7.20;99.90
17565;DHT22;62994;52.126;5.596;2024-03-07T01:47:54;7.10;99.90
17565;DHT22;62994;52.126;5.596;2024-03-07T01:50:22;7.10;99.90
17565;DHT22;62994;52.126;5.596;2024-03-07T01:52:50;7.10;99.90
17565;DHT22;62994;52.126;5.596;2024-03-07T01:55:18;7.10;99.90
17565;DHT22;62994;52.126;5.596;2024-03-07T01:57:45;7.10;99.90
17565;DHT22;62994;52.126;5.596;2024-03-07T02:00:12;7.10;99.90
17565;DHT22;62994;52.126;5.596;2024-03-07T02:02:41;7.00;99.90
17565;DHT22;62994;52.126;5.596;2024-03-07T02:05:08;7.00;99.90
17565;DHT22;62994;52.126;5.596;2024-03-07T02:07:36;7.00;99.90
17565;DHT22;62994;52.126;5.596;2024-03-07T02:10:05;7.00;99.90
17565;DHT22;62994;52.126;5.596;2024-03-07T02:12:34;7.00;99.90
17565;DHT22;62994;52.126;5.596;2024-03-07T02:15:02;7.00;99.90
17565;DHT22;62994;52.126;5.596;2024-03-07T02:17:29;6.90;99.90
17565;DHT22;62994;52.126;5.596;2024-03-07T02:19:58;6.90;99.90
17565;DHT22;62994;52.126;5.596;2024-03-07T02:22:26;6.80;99.90
17565;DHT22;62994;52.126;5.596;2024-03-07T02:24:53;6.80;99.90
17565;DHT22;62994;52.126;5.596;2024-03-07T02:27:20;6.80;99.90
17565;DHT22;62994;52.126;5.596;2024-03-07T02:29:47;6.70;99.90
17565;DHT22;62994;52.126;5.596;2024-03-07T02:32:16;6.70;99.90
17565;DHT22;62994;52.126;5.596;2024-03-07T02:34:44;6.70;99.90
17565;DHT22;62994;52.126;5.596;2024-03-07T02:37:12;6.70;99.90
17565;DHT22;62994;52.126;5.596;2024-03-07T02:39:41;6.70;99.90
17565;DHT22;62994;52.126;5.596;2024-03-07T02:42:08;6.60;99.90
17565;DHT22;62994;52.126;5.596;2024-03-07T02:44:35;6.70;99.90
17565;DHT22;62994;52.126;5.596;2024-03-07T02:47:04;6.60;99.90
17565;DHT22;62994;52.126;5.596;2024-03-07T02:49:32;6.60;99.90
17565;DHT22;62994;52.126;5.596;2024-03-07T02:51:59;6.60;99.90
17565;DHT22;62994;52.126;5.596;2024-03-07T02:54:26;6.60;99.90
17565;DHT22;62994;52.126;5.596;2024-03-07T02:56:54;6.60;99.90
17565;DHT22;62994;52.126;5.596;2024-03-07T02:59:21;6.50;99.90
17565;DHT22;62994;52.126;5.596;2024-03-07T03:01:48;6.60;99.90
17565;DHT22;62994;52.126;5.596;2024-03-07T03:04:16;6.50;99.90
17565;DHT22;62994;52.126;5.596;2024-03-07T03:06:43;6.50;99.90
17565;DHT22;62994;52.126;5.596;2024-03-07T03:09:16;6.50;99.90
17565;DHT22;62994;52.126;5.596;2024-03-07T03:11:44;6.50;99.90
17565;DHT22;62994;52.126;5.596;2024-03-07T03:14:13;6.50;99.90
17565;DHT22;62994;52.126;5.596;2024-03-07T03:16:41;6.40;99.90
17565;DHT22;62994;52.126;5.596;2024-03-07T03:19:15;6.50;99.90
17565;DHT22;62994;52.126;5.596;2024-03-07T03:21:42;6.40;99.90
17565;DHT22;62994;52.126;5.596;2024-03-07T03:24:09;6.40;99.90
17565;DHT22;62994;52.126;5.596;2024-03-07T03:26:36;6.40;99.90
17565;DHT22;62994;52.126;5.596;2024-03-07T03:29:03;6.40;99.90
17565;DHT22;62994;52.126;5.596;2024-03-07T03:31:33;6.40;99.90
17565;DHT22;62994;52.126;5.596;2024-03-07T03:34:00;6.30;99.90
17565;DHT22;62994;52.126;5.596;2024-03-07T03:36:27;6.30;99.90
17565;DHT22;62994;52.126;5.596;2024-03-07T03:38:55;6.30;99.90
17565;DHT22;62994;52.126;5.596;2024-03-07T03:41:22;6.30;99.90
17565;DHT22;62994;52.126;5.596;2024-03-07T03:43:49;6.30;99.90
17565;DHT22;62994;52.126;5.596;2024-03-07T03:46:16;6.20;99.90
17565;DHT22;62994;52.126;5.596;2024-03-07T03:48:45;6.20;99.90
17565;DHT22;62994;52.126;5.596;2024-03-07T03:51:12;6.10;99.90
17565;DHT22;62994;52.126;5.596;2024-03-07T03:53:41;6.10;99.90
17565;DHT22;62994;52.126;5.596;2024-03-07T03:56:10;6.00;99.90
17565;DHT22;62994;52.126;5.596;2024-03-07T03:58:40;6.00;99.90
17565;DHT22;62994;52.126;5.596;2024-03-07T04:01:07;6.00;99.90
17565;DHT22;62994;52.126;5.596;2024-03-07T04:03:38;5.90;99.90
17565;DHT22;62994;52.126;5.596;2024-03-07T04:06:07;5.90;99.90
17565;DHT22;62994;52.126;5.596;2024-03-07T04:08:34;5.80;99.90
17565;DHT22;62994;52.126;5.596;2024-03-07T04:11:02;5.80;99.90
17565;DHT22;62994;52.126;5.596;2024-03-07T04:13:30;5.80;99.90
17565;DHT22;62994;52.126;5.596;2024-03-07T04:15:57;5.70;99.90
17565;DHT22;62994;52.126;5.596;2024-03-07T04:18:24;5.70;99.90
17565;DHT22;62994;52.126;5.596;2024-03-07T04:20:52;5.70;99.90
17565;DHT22;62994;52.126;5.596;2024-03-07T04:23:21;5.70;99.90
17565;DHT22;62994;52.126;5.596;2024-03-07T04:25:48;5.70;99.90
17565;DHT22;62994;52.126;5.596;2024-03-07T04:28:17;5.70;99.90
17565;DHT22;62994;52.126;5.596;2024-03-07T04:30:44;5.70;99.90
17565;DHT22;62994;52.126;5.596;2024-03-07T04:33:15;5.70;99.90
17565;DHT22;62994;52.126;5.596;2024-03-07T04:35:42;5.60;99.90
17565;DHT22;62994;52.126;5.596;2024-03-07T04:38:09;5.60;99.90
17565;DHT22;62994;52.126;5.596;2024-03-07T04:40:45;5.60;99.90
17565;DHT22;62994;52.126;5.596;2024-03-07T04:43:17;5.60;99.90
17565;DHT22;62994;52.126;5.596;2024-03-07T04:45:51;5.60;99.90
17565;DHT22;62994;52.126;5.596;2024-03-07T04:48:18;5.60;99.90
17565;DHT22;62994;52.126;5.596;2024-03-07T04:50:47;5.60;99.90
17565;DHT22;62994;52.126;5.596;2024-03-07T04:53:14;5.60;99.90
17565;DHT22;62994;52.126;5.596;2024-03-07T04:55:42;5.60;99.90
17565;DHT22;62994;52.126;5.596;2024-03-07T04:58:09;5.60;99.90
17565;DHT22;62994;52.126;5.596;2024-03-07T05:00:37;5.60;99.90
17565;DHT22;62994;52.126;5.596;2024-03-07T05:03:04;5.60;99.90
17565;DHT22;62994;52.126;5.596;2024-03-07T05:05:31;5.60;99.90
17565;DHT22;62994;52.126;5.596;2024-03-07T05:08:03;5.60;99.90
17565;DHT22;62994;52.126;5.596;2024-03-07T05:10:30;5.60;99.90
17565;DHT22;62994;52.126;5.596;2024-03-07T05:12:59;5.60;99.90
17565;DHT22;62994;52.126;5.596;2024-03-07T05:15:26;5.60;99.90
17565;DHT22;62994;52.126;5.596;2024-03-07T05:17:53;5.50;99.90
17565;DHT22;62994;52.126;5.596;2024-03-07T05:20:21;5.50;99.90
17565;DHT22;62994;52.126;5.596;2024-03-07T05:22:49;5.60;99.90
17565;DHT22;62994;52.126;5.596;2024-03-07T05:25:17;5.50;99.90
17565;DHT22;62994;52.126;5.596;2024-03-07T05:27:45;5.50;99.90
17565;DHT22;62994;52.126;5.596;2024-03-07T05:30:14;5.50;99.90
17565;DHT22;62994;52.126;5.596;2024-03-07T05:32:51;5.50;99.90
17565;DHT22;62994;52.126;5.596;2024-03-07T05:35:19;5.50;99.90
17565;DHT22;62994;52.126;5.596;2024-03-07T05:37:46;5.40;99.90
17565;DHT22;62994;52.126;5.596;2024-03-07T05:40:13;5.40;99.90
17565;DHT22;62994;52.126;5.596;2024-03-07T05:42:40;5.40;99.90
17565;DHT22;62994;52.126;5.596;2024-03-07T05:45:08;5.40;99.90
17565;DHT22;62994;52.126;5.596;2024-03-07T05:47:37;5.30;99.90
17565;DHT22;62994;52.126;5.596;2024-03-07T05:50:05;5.30;99.90
17565;DHT22;62994;52.126;5.596;2024-03-07T05:52:34;5.20;99.90
17565;DHT22;62994;52.126;5.596;2024-03-07T05:55:01;5.20;99.90
17565;DHT22;62994;52.126;5.596;2024-03-07T05:57:28;5.10;99.90
17565;DHT22;62994;52.126;5.596;2024-03-07T05:59:55;5.10;99.90
17565;DHT22;62994;52.126;5.596;2024-03-07T06:02:22;5.00;99.90
17565;DHT22;62994;52.126;5.596;2024-03-07T06:04:56;5.00;99.90
17565;DHT22;62994;52.126;5.596;2024-03-07T06:07:23;5.00;99.90
17565;DHT22;62994;52.126;5.596;2024-03-07T06:09:50;5.00;99.90
17565;DHT22;62994;52.126;5.596;2024-03-07T06:12:17;5.00;99.90
17565;DHT22;62994;52.126;5.596;2024-03-07T06:14:44;5.00;99.90
17565;DHT22;62994;52.126;5.596;2024-03-07T06:17:11;5.00;99.90
17565;DHT22;62994;52.126;5.596;2024-03-07T06:19:38;4.90;99.90
17565;DHT22;62994;52.126;5.596;2024-03-07T06:22:06;4.90;99.90
17565;DHT22;62994;52.126;5.596;2024-03-07T06:24:38;4.90;99.90
17565;DHT22;62994;52.126;5.596;2024-03-07T06:27:08;4.90;99.90
17565;DHT22;62994;52.126;5.596;2024-03-07T06:29:42;4.90;99.90
17565;DHT22;62994;52.126;5.596;2024-03-07T06:32:09;4.90;99.90
17565;DHT22;62994;52.126;5.596;2024-03-07T06:34:37;4.90;99.90
17565;DHT22;62994;52.126;5.596;2024-03-07T06:37:06;4.90;99.90
17565;DHT22;62994;52.126;5.596;2024-03-07T06:39:34;4.80;99.90
17565;DHT22;62994;52.126;5.596;2024-03-07T06:42:01;4.70;99.90
17565;DHT22;62994;52.126;5.596;2024-03-07T06:44:28;4.70;99.90
17565;DHT22;62994;52.126;5.596;2024-03-07T06:46:55;4.60;99.90
17565;DHT22;62994;52.126;5.596;2024-03-07T06:49:24;4.60;99.90
17565;DHT22;62994;52.126;5.596;2024-03-07T06:51:51;4.60;99.90
17565;DHT22;62994;52.126;5.596;2024-03-07T06:54:21;4.50;99.90
17565;DHT22;62994;52.126;5.596;2024-03-07T06:56:48;4.50;99.90
17565;DHT22;62994;52.126;5.596;2024-03-07T06:59:15;4.50;99.90
17565;DHT22;62994;52.126;5.596;2024-03-07T07:01:44;4.40;99.90
17565;DHT22;62994;52.126;5.596;2024-03-07T07:04:11;4.40;99.90
17565;DHT22;62994;52.126;5.596;2024-03-07T07:06:40;4.40;99.90
17565;DHT22;62994;52.126;5.596;2024-03-07T07:09:08;4.30;99.90
17565;DHT22;62994;52.126;5.596;2024-03-07T07:11:37;4.40;99.90
17565;DHT22;62994;52.126;5.596;2024-03-07T07:14:04;4.40;99.90
17565;DHT22;62994;52.126;5.596;2024-03-07T07:16:31;4.30;99.90
17565;DHT22;62994;52.126;5.596;2024-03-07T07:19:01;4.30;99.90
17565;DHT22;62994;52.126;5.596;2024-03-07T07:21:28;4.30;99.90
17565;DHT22;62994;52.126;5.596;2024-03-07T07:23:55;4.30;99.90
17565;DHT22;62994;52.126;5.596;2024-03-07T07:26:23;4.30;99.90
17565;DHT22;62994;52.126;5.596;2024-03-07T07:28:52;4.40;99.90
17565;DHT22;62994;52.126;5.596;2024-03-07T07:31:20;4.40;99.90
17565;DHT22;62994;52.126;5.596;2024-03-07T07:33:47;4.40;99.90
17565;DHT22;62994;52.126;5.596;2024-03-07T07:36:14;4.50;99.90
17565;DHT22;62994;52.126;5.596;2024-03-07T07:38:42;4.50;99.90
17565;DHT22;62994;52.126;5.596;2024-03-07T07:41:14;4.50;99.90
17565;DHT22;62994;52.126;5.596;2024-03-07T07:43:41;4.50;99.90
17565;DHT22;62994;52.126;5.596;2024-03-07T07:46:09;4.60;99.90
17565;DHT22;62994;52.126;5.596;2024-03-07T07:48:37;4.50;99.90
17565;DHT22;62994;52.126;5.596;2024-03-07T07:51:04;4.60;99.90
17565;DHT22;62994;52.126;5.596;2024-03-07T07:53:31;4.60;99.90
17565;DHT22;62994;52.126;5.596;2024-03-07T07:55:59;4.60;99.90
17565;DHT22;62994;52.126;5.596;2024-03-07T07:58:26;4.60;99.90
17565;DHT22;62994;52.126;5.596;2024-03-07T08:00:53;4.60;99.90
17565;DHT22;62994;52.126;5.596;2024-03-07T08:03:22;4.70;99.90
17565;DHT22;62994;52.126;5.596;2024-03-07T08:05:49;4.70;99.90
17565;DHT22;62994;52.126;5.596;2024-03-07T08:08:17;4.70;99.90
17565;DHT22;62994;52.126;5.596;2024-03-07T08:10:48;4.70;99.90
17565;DHT22;62994;52.126;5.596;2024-03-07T08:13:16;4.80;99.90
17565;DHT22;62994;52.126;5.596;2024-03-07T08:15:43;4.80;99.90
17565;DHT22;62994;52.126;5.596;2024-03-07T08:18:10;4.80;99.90
17565;DHT22;62994;52.126;5.596;2024-03-07T08:20:39;4.90;99.90
17565;DHT22;62994;52.126;5.596;2024-03-07T08:23:09;5.00;99.90
17565;DHT22;62994;52.126;5.596;2024-03-07T08:25:38;5.00;99.90
17565;DHT22;62994;52.126;5.596;2024-03-07T08:28:06;5.00;99.90
17565;DHT22;62994;52.126;5.596;2024-03-07T08:30:34;5.10;99.90
17565;DHT22;62994;52.126;5.596;2024-03-07T08:33:01;5.20;99.90
17565;DHT22;62994;52.126;5.596;2024-03-07T08:35:30;5.30;99.90
17565;DHT22;62994;52.126;5.596;2024-03-07T08:37:59;5.40;99.90
17565;DHT22;62994;52.126;5.596;2024-03-07T08:40:27;5.40;99.90
17565;DHT22;62994;52.126;5.596;2024-03-07T08:42:58;5.50;99.90
17565;DHT22;62994;52.126;5.596;2024-03-07T08:45:26;5.50;99.90
17565;DHT22;62994;52.126;5.596;2024-03-07T08:47:56;5.60;99.90
17565;DHT22;62994;52.126;5.596;2024-03-07T08:50:24;5.70;99.90
17565;DHT22;62994;52.126;5.596;2024-03-07T08:52:52;5.70;99.90
17565;DHT22;62994;52.126;5.596;2024-03-07T08:55:22;5.80;99.90
17565;DHT22;62994;52.126;5.596;2024-03-07T08:57:50;5.90;99.90
17565;DHT22;62994;52.126;5.596;2024-03-07T09:00:18;6.00;99.90
17565;DHT22;62994;52.126;5.596;2024-03-07T09:02:49;6.10;99.90
17565;DHT22;62994;52.126;5.596;2024-03-07T09:05:17;6.10;99.90
17565;DHT22;62994;52.126;5.596;2024-03-07T09:07:45;6.20;99.90
17565;DHT22;62994;52.126;5.596;2024-03-07T09:10:13;6.20;99.90
17565;DHT22;62994;52.126;5.596;2024-03-07T09:12:41;6.20;99.90
17565;DHT22;62994;52.126;5.596;2024-03-07T09:15:09;6.40;99.90
17565;DHT22;62994;52.126;5.596;2024-03-07T09:17:37;6.50;99.90
17565;DHT22;62994;52.126;5.596;2024-03-07T09:20:05;6.50;99.90
17565;DHT22;62994;52.126;5.596;2024-03-07T09:22:35;6.60;99.90
17565;DHT22;62994;52.126;5.596;2024-03-07T09:25:02;6.70;99.90
17565;DHT22;62994;52.126;5.596;2024-03-07T09:27:29;6.70;99.90
17565;DHT22;62994;52.126;5.596;2024-03-07T09:29:57;6.80;99.90
17565;DHT22;62994;52.126;5.596;2024-03-07T09:32:25;6.90;99.90
17565;DHT22;62994;52.126;5.596;2024-03-07T09:34:53;7.00;99.90
17565;DHT22;62994;52.126;5.596;2024-03-07T09:37:20;7.00;99.90
17565;DHT22;62994;52.126;5.596;2024-03-07T09:39:49;7.10;99.90
17565;DHT22;62994;52.126;5.596;2024-03-07T09:42:17;7.10;99.90
17565;DHT22;62994;52.126;5.596;2024-03-07T09:44:45;7.20;99.90
17565;DHT22;62994;52.126;5.596;2024-03-07T09:47:15;7.30;99.90
17565;DHT22;62994;52.126;5.596;2024-03-07T09:49:42;7.40;99.90
17565;DHT22;62994;52.126;5.596;2024-03-07T09:52:10;7.50;99.90
17565;DHT22;62994;52.126;5.596;2024-03-07T09:54:38;7.50;99.90
17565;DHT22;62994;52.126;5.596;2024-03-07T09:57:06;7.60;99.90
17565;DHT22;62994;52.126;5.596;2024-03-07T09:59:35;7.70;99.90
17565;DHT22;62994;52.126;5.596;2024-03-07T10:02:05;7.70;99.90
17565;DHT22;62994;52.126;5.596;2024-03-07T10:04:38;7.80;99.90
17565;DHT22;62994;52.126;5.596;2024-03-07T10:07:07;7.80;99.90
17565;DHT22;62994;52.126;5.596;2024-03-07T10:09:38;7.90;99.90
17565;DHT22;62994;52.126;5.596;2024-03-07T10:12:06;8.00;99.90
17565;DHT22;62994;52.126;5.596;2024-03-07T10:14:38;8.10;99.90
17565;DHT22;62994;52.126;5.596;2024-03-07T10:17:05;8.20;99.90
17565;DHT22;62994;52.126;5.596;2024-03-07T10:19:33;8.20;99.90
17565;DHT22;62994;52.126;5.596;2024-03-07T10:22:01;8.30;99.90
17565;DHT22;62994;52.126;5.596;2024-03-07T10:24:32;8.30;99.90
17565;DHT22;62994;52.126;5.596;2024-03-07T10:27:00;8.40;99.90
17565;DHT22;62994;52.126;5.596;2024-03-07T10:29:27;8.50;99.90
17565;DHT22;62994;52.126;5.596;2024-03-07T10:31:55;8.50;99.90
17565;DHT22;62994;52.126;5.596;2024-03-07T10:34:22;8.60;99.90
17565;DHT22;62994;52.126;5.596;2024-03-07T10:36:49;8.70;99.90
17565;DHT22;62994;52.126;5.596;2024-03-07T10:39:19;8.80;99.90
17565;DHT22;62994;52.126;5.596;2024-03-07T10:41:48;8.90;99.90
17565;DHT22;62994;52.126;5.596;2024-03-07T10:44:19;8.90;99.90
17565;DHT22;62994;52.126;5.596;2024-03-07T10:46:52;9.00;99.90
17565;DHT22;62994;52.126;5.596;2024-03-07T10:49:20;9.00;99.90
17565;DHT22;62994;52.126;5.596;2024-03-07T10:51:58;9.00;99.90
17565;DHT22;62994;52.126;5.596;2024-03-07T10:54:34;9.00;99.90
17565;DHT22;62994;52.126;5.596;2024-03-07T10:57:26;9.10;99.90
17565;DHT22;62994;52.126;5.596;2024-03-07T10:59:57;9.10;99.90
17565;DHT22;62994;52.126;5.596;2024-03-07T11:02:42;9.10;99.90
17565;DHT22;62994;52.126;5.596;2024-03-07T11:05:13;9.20;99.90
17565;DHT22;62994;52.126;5.596;2024-03-07T11:07:41;9.30;99.90
17565;DHT22;62994;52.126;5.596;2024-03-07T11:10:11;9.30;99.90
17565;DHT22;62994;52.126;5.596;2024-03-07T11:12:40;9.40;99.90
17565;DHT22;62994;52.126;5.596;2024-03-07T11:15:09;9.50;99.90
17565;DHT22;62994;52.126;5.596;2024-03-07T11:17:41;9.50;99.90
17565;DHT22;62994;52.126;5.596;2024-03-07T11:20:21;9.50;99.90
17565;DHT22;62994;52.126;5.596;2024-03-07T11:22:49;9.50;99.90
17565;DHT22;62994;52.126;5.596;2024-03-07T11:25:19;9.50;99.90
17565;DHT22;62994;52.126;5.596;2024-03-07T11:27:55;9.60;99.90
17565;DHT22;62994;52.126;5.596;2024-03-07T11:30:23;9.60;99.90
17565;DHT22;62994;52.126;5.596;2024-03-07T11:32:51;9.60;99.90
17565;DHT22;62994;52.126;5.596;2024-03-07T11:35:20;9.70;99.90
17565;DHT22;62994;52.126;5.596;2024-03-07T11:37:57;9.60;99.90
17565;DHT22;62994;52.126;5.596;2024-03-07T11:40:44;9.70;99.90
17565;DHT22;62994;52.126;5.596;2024-03-07T11:43:14;9.70;99.90
17565;DHT22;62994;52.126;5.596;2024-03-07T11:45:41;9.70;99.90
17565;DHT22;62994;52.126;5.596;2024-03-07T11:48:17;9.80;99.90
17565;DHT22;62994;52.126;5.596;2024-03-07T11:50:46;9.70;99.90
17565;DHT22;62994;52.126;5.596;2024-03-07T11:53:15;9.80;99.90
17565;DHT22;62994;52.126;5.596;2024-03-07T11:55:44;9.90;99.90
17565;DHT22;62994;52.126;5.596;2024-03-07T11:58:15;9.90;99.90
17565;DHT22;62994;52.126;5.596;2024-03-07T12:00:43;10.00;99.90
17565;DHT22;62994;52.126;5.596;2024-03-07T12:03:12;10.00;99.90
17565;DHT22;62994;52.126;5.596;2024-03-07T12:05:40;10.00;99.90
17565;DHT22;62994;52.126;5.596;2024-03-07T12:08:09;10.10;99.90
17565;DHT22;62994;52.126;5.596;2024-03-07T12:10:37;10.10;99.90
17565;DHT22;62994;52.126;5.596;2024-03-07T12:13:07;10.20;99.90
17565;DHT22;62994;52.126;5.596;2024-03-07T12:15:37;10.10;99.90
17565;DHT22;62994;52.126;5.596;2024-03-07T12:18:05;10.20;99.90
17565;DHT22;62994;52.126;5.596;2024-03-07T12:20:39;10.20;99.90
17565;DHT22;62994;52.126;5.596;2024-03-07T12:23:08;10.30;99.90
17565;DHT22;62994;52.126;5.596;2024-03-07T12:25:38;10.50;99.90
17565;DHT22;62994;52.126;5.596;2024-03-07T12:28:08;10.50;99.90
17565;DHT22;62994;52.126;5.596;2024-03-07T12:30:48;10.70;99.90
17565;DHT22;62994;52.126;5.596;2024-03-07T12:33:19;10.80;99.90
17565;DHT22;62994;52.126;5.596;2024-03-07T12:35:47;10.90;99.90
17565;DHT22;62994;52.126;5.596;2024-03-07T12:38:15;10.90;99.90
17565;DHT22;62994;52.126;5.596;2024-03-07T12:40:43;10.90;99.90
17565;DHT22;62994;52.126;5.596;2024-03-07T12:43:17;10.90;99.90
17565;DHT22;62994;52.126;5.596;2024-03-07T12:45:47;10.90;99.90
17565;DHT22;62994;52.126;5.596;2024-03-07T12:48:14;10.90;99.90
17565;DHT22;62994;52.126;5.596;2024-03-07T12:50:44;10.90;99.90
17565;DHT22;62994;52.126;5.596;2024-03-07T12:53:12;10.90;99.90
17565;DHT22;62994;52.126;5.596;2024-03-07T12:55:39;11.00;99.90
17565;DHT22;62994;52.126;5.596;2024-03-07T12:58:08;11.00;99.90
17565;DHT22;62994;52.126;5.596;2024-03-07T13:00:38;11.10;99.90
17565;DHT22;62994;52.126;5.596;2024-03-07T13:03:07;11.10;99.90
17565;DHT22;62994;52.126;5.596;2024-03-07T13:05:34;11.20;99.90
17565;DHT22;62994;52.126;5.596;2024-03-07T13:08:09;11.20;99.90
17565;DHT22;62994;52.126;5.596;2024-03-07T13:10:38;11.20;99.90
17565;DHT22;62994;52.126;5.596;2024-03-07T13:13:06;11.30;99.90
17565;DHT22;62994;52.126;5.596;2024-03-07T13:15:35;11.40;99.90
17565;DHT22;62994;52.126;5.596;2024-03-07T13:18:05;11.40;99.90
17565;DHT22;62994;52.126;5.596;2024-03-07T13:20:32;11.50;99.90
17565;DHT22;62994;52.126;5.596;2024-03-07T13:22:59;11.60;99.90
17565;DHT22;62994;52.126;5.596;2024-03-07T13:25:28;11.60;99.90
17565;DHT22;62994;52.126;5.596;2024-03-07T13:28:00;11.70;99.90
17565;DHT22;62994;52.126;5.596;2024-03-07T13:30:35;11.80;99.90
17565;DHT22;62994;52.126;5.596;2024-03-07T13:33:04;11.90;99.90
17565;DHT22;62994;52.126;5.596;2024-03-07T13:35:31;12.00;99.90
17565;DHT22;62994;52.126;5.596;2024-03-07T13:37:59;12.00;99.90
17565;DHT22;62994;52.126;5.596;2024-03-07T13:40:26;11.90;99.90
17565;DHT22;62994;52.126;5.596;2024-03-07T13:42:56;11.90;99.90
17565;DHT22;62994;52.126;5.596;2024-03-07T13:45:25;11.90;99.90
17565;DHT22;62994;52.126;5.596;2024-03-07T13:47:53;11.90;99.90
17565;DHT22;62994;52.126;5.596;2024-03-07T13:50:23;12.00;99.90
17565;DHT22;62994;52.126;5.596;2024-03-07T13:52:51;12.20;99.90
17565;DHT22;62994;52.126;5.596;2024-03-07T13:55:52;12.10;99.90
17565;DHT22;62994;52.126;5.596;2024-03-07T13:58:34;11.90;99.90
17565;DHT22;62994;52.126;5.596;2024-03-07T14:01:20;11.80;99.90
17565;DHT22;62994;52.126;5.596;2024-03-07T14:04:32;11.70;99.90
17565;DHT22;62994;52.126;5.596;2024-03-07T14:07:19;11.60;99.90
17565;DHT22;62994;52.126;5.596;2024-03-07T14:10:18;11.40;99.90
17565;DHT22;62994;52.126;5.596;2024-03-07T14:13:12;11.60;99.90
17565;DHT22;62994;52.126;5.596;2024-03-07T14:16:18;11.70;99.90
17565;DHT22;62994;52.126;5.596;2024-03-07T14:19:22;11.80;99.90
17565;DHT22;62994;52.126;5.596;2024-03-07T14:22:11;11.80;99.90
17565;DHT22;62994;52.126;5.596;2024-03-07T14:25:23;11.60;99.90
17565;DHT22;62994;52.126;5.596;2024-03-07T14:28:05;11.50;99.90
17565;DHT22;62994;52.126;5.596;2024-03-07T14:30:41;11.40;99.90
17565;DHT22;62994;52.126;5.596;2024-03-07T14:33:12;11.30;99.90
17565;DHT22;62994;52.126;5.596;2024-03-07T14:35:58;11.30;99.90
17565;DHT22;62994;52.126;5.596;2024-03-07T14:38:34;11.20;99.90
17565;DHT22;62994;52.126;5.596;2024-03-07T14:41:09;11.20;99.90
17565;DHT22;62994;52.126;5.596;2024-03-07T14:43:38;11.10;99.90
17565;DHT22;62994;52.126;5.596;2024-03-07T14:46:06;11.10;99.90
17565;DHT22;62994;52.126;5.596;2024-03-07T14:48:35;11.10;99.90
17565;DHT22;62994;52.126;5.596;2024-03-07T14:51:03;10.80;99.90
17565;DHT22;62994;52.126;5.596;2024-03-07T14:53:31;10.80;99.90
17565;DHT22;62994;52.126;5.596;2024-03-07T14:55:59;10.70;99.90
17565;DHT22;62994;52.126;5.596;2024-03-07T14:58:26;10.60;99.90
17565;DHT22;62994;52.126;5.596;2024-03-07T15:00:53;10.60;99.90
17565;DHT22;62994;52.126;5.596;2024-03-07T15:03:20;10.50;99.90
17565;DHT22;62994;52.126;5.596;2024-03-07T15:05:48;10.50;99.90
17565;DHT22;62994;52.126;5.596;2024-03-07T15:08:15;10.40;99.90
17565;DHT22;62994;52.126;5.596;2024-03-07T15:10:48;10.40;99.90
17565;DHT22;62994;52.126;5.596;2024-03-07T15:13:22;10.50;99.90
17565;DHT22;62994;52.126;5.596;2024-03-07T15:15:57;10.40;99.90
17565;DHT22;62994;52.126;5.596;2024-03-07T15:18:24;10.30;99.90
17565;DHT22;62994;52.126;5.596;2024-03-07T15:20:52;10.30;99.90
17565;DHT22;62994;52.126;5.596;2024-03-07T15:23:23;10.20;99.90
17565;DHT22;62994;52.126;5.596;2024-03-07T15:25:52;10.10;99.90
17565;DHT22;62994;52.126;5.596;2024-03-07T15:28:19;10.10;99.90
17565;DHT22;62994;52.126;5.596;2024-03-07T15:30:47;10.10;99.90
17565;DHT22;62994;52.126;5.596;2024-03-07T15:33:15;10.20;99.90
17565;DHT22;62994;52.126;5.596;2024-03-07T15:35:44;10.20;99.90
17565;DHT22;62994;52.126;5.596;2024-03-07T15:38:12;10.20;99.90
17565;DHT22;62994;52.126;5.596;2024-03-07T15:40:43;10.30;99.90
17565;DHT22;62994;52.126;5.596;2024-03-07T15:43:11;10.30;99.90
17565;DHT22;62994;52.126;5.596;2024-03-07T15:45:38;10.20;99.90
17565;DHT22;62994;52.126;5.596;2024-03-07T15:48:07;10.20;99.90
17565;DHT22;62994;52.126;5.596;2024-03-07T15:50:37;10.10;99.90
17565;DHT22;62994;52.126;5.596;2024-03-07T15:53:04;10.10;99.90
17565;DHT22;62994;52.126;5.596;2024-03-07T15:55:32;10.10;99.90
17565;DHT22;62994;52.126;5.596;2024-03-07T15:58:01;10.10;99.90